createdAt,value
2024-02-02T00:00:42.627Z,18.40
2024-02-02T00:03:09.303Z,17.37
2024-02-02T00:05:35.854Z,17.33
2024-02-02T00:08:02.754Z,24.17
2024-02-02T00:10:29.476Z,20.97
2024-02-02T00:12:56.823Z,16.98
2024-02-02T00:15:23.676Z,16.70
2024-02-02T00:17:50.504Z,17.73
2024-02-02T00:20:17.202Z,15.45
2024-02-02T00:22:43.782Z,16.35
2024-02-02T00:25:10.272Z,18.08
2024-02-02T00:27:37.001Z,15.00
2024-02-02T00:30:03.888Z,12.98
2024-02-02T00:32:30.532Z,14.30
2024-02-02T00:34:57.123Z,17.13
2024-02-02T00:37:23.913Z,16.73
2024-02-02T00:39:50.441Z,19.40
2024-02-02T00:42:16.999Z,18.30
2024-02-02T00:44:43.506Z,18.85
2024-02-02T00:47:09.992Z,19.90
2024-02-02T00:49:36.651Z,19.83
2024-02-02T00:52:03.231Z,18.20
2024-02-02T00:54:30.121Z,18.17
2024-02-02T00:56:56.813Z,17.08
2024-02-02T00:59:23.632Z,19.80
2024-02-02T01:01:51.147Z,15.93
2024-02-02T01:04:17.694Z,18.50
2024-02-02T01:06:44.994Z,17.95
2024-02-02T01:09:12.202Z,18.98
2024-02-02T01:11:38.949Z,18.00
2024-02-02T01:14:05.480Z,20.45
2024-02-02T01:16:34.094Z,16.58
2024-02-02T01:19:01.179Z,20.40
2024-02-02T01:21:28.801Z,18.95
2024-02-02T01:23:55.562Z,18.50
2024-02-02T01:26:22.183Z,20.60
2024-02-02T01:28:48.659Z,19.00
2024-02-02T01:31:15.118Z,23.70
2024-02-02T01:33:41.789Z,23.95
2024-02-02T01:36:08.892Z,23.33
2024-02-02T01:38:35.492Z,24.50
2024-02-02T01:41:02.023Z,20.63
2024-02-02T01:43:30.416Z,20.33
2024-02-02T01:45:57.156Z,22.75
2024-02-02T01:48:25.475Z,19.10
2024-02-02T01:50:52.282Z,25.48
2024-02-02T01:53:18.858Z,21.98
2024-02-02T01:55:45.476Z,22.67
2024-02-02T01:58:12.254Z,19.85
2024-02-02T02:00:38.997Z,22.67
2024-02-02T02:03:06.055Z,21.58
2024-02-02T02:05:32.793Z,20.08
2024-02-02T02:07:59.516Z,22.27
2024-02-02T02:10:26.365Z,22.98
2024-02-02T02:12:52.876Z,23.40
2024-02-02T02:15:19.479Z,21.48
2024-02-02T02:17:47.533Z,20.48
2024-02-02T02:20:20.571Z,23.15
2024-02-02T02:22:47.301Z,22.27
2024-02-02T02:25:14.026Z,25.20
2024-02-02T02:27:40.540Z,22.35
2024-02-02T02:30:07.615Z,19.50
2024-02-02T02:32:34.206Z,23.13
2024-02-02T02:35:00.745Z,19.33
2024-02-02T02:37:27.209Z,18.92
2024-02-02T02:39:53.737Z,19.83
2024-02-02T02:42:20.753Z,19.95
2024-02-02T02:44:47.306Z,20.40
2024-02-02T02:47:13.957Z,19.45
2024-02-02T02:49:40.652Z,19.58
2024-02-02T02:52:08.043Z,21.73
2024-02-02T02:54:34.930Z,19.10
2024-02-02T02:57:02.151Z,22.73
2024-02-02T02:59:31.431Z,17.30
2024-02-02T03:01:58.050Z,18.88
2024-02-02T03:04:24.609Z,17.50
2024-02-02T03:06:51.213Z,20.33
2024-02-02T03:09:17.864Z,15.68
2024-02-02T03:11:44.397Z,21.10
2024-02-02T03:14:11.074Z,18.98
2024-02-02T03:16:37.695Z,22.15
2024-02-02T03:19:05.508Z,19.67
2024-02-02T03:21:32.271Z,21.65
2024-02-02T03:23:58.824Z,21.25
2024-02-02T03:26:25.356Z,19.27
2024-02-02T03:28:51.832Z,23.25
2024-02-02T03:31:18.364Z,19.75
2024-02-02T03:33:44.935Z,23.63
2024-02-02T03:36:11.494Z,19.13
2024-02-02T03:38:37.978Z,20.25
2024-02-02T03:41:04.872Z,17.05
2024-02-02T03:43:32.091Z,20.57
2024-02-02T03:45:58.622Z,20.35
2024-02-02T03:48:25.211Z,21.75
2024-02-02T03:50:51.763Z,23.57
2024-02-02T03:53:18.284Z,25.40
2024-02-02T03:55:44.803Z,21.60
2024-02-02T03:58:11.365Z,21.17
2024-02-02T04:00:37.987Z,24.50
2024-02-02T04:03:04.959Z,22.03
2024-02-02T04:05:32.011Z,20.33
2024-02-02T04:07:58.537Z,26.45
2024-02-02T04:10:25.055Z,22.02
2024-02-02T04:12:51.597Z,22.00
2024-02-02T04:15:18.120Z,21.88
2024-02-02T04:17:44.650Z,28.33
2024-02-02T04:20:11.597Z,20.38
2024-02-02T04:22:38.143Z,22.75
2024-02-02T04:25:05.100Z,25.67
2024-02-02T04:27:31.675Z,23.23
2024-02-02T04:29:58.378Z,23.67
2024-02-02T04:32:24.967Z,25.57
2024-02-02T04:34:51.489Z,24.30
2024-02-02T04:37:18.019Z,24.17
2024-02-02T04:39:44.689Z,26.20
2024-02-02T04:42:11.356Z,26.10
2024-02-02T04:44:38.107Z,22.40
2024-02-02T04:47:04.678Z,28.60
2024-02-02T04:49:31.377Z,31.60
2024-02-02T04:51:58.009Z,25.60
2024-02-02T04:54:24.561Z,30.17
2024-02-02T04:56:51.077Z,31.17
2024-02-02T04:59:17.795Z,23.95
2024-02-02T05:01:44.336Z,29.15
2024-02-02T05:04:10.864Z,31.95
2024-02-02T05:06:37.463Z,30.98
2024-02-02T05:09:04.005Z,34.13
2024-02-02T05:11:30.481Z,30.45
2024-02-02T05:13:56.955Z,28.00
2024-02-02T05:16:23.582Z,29.07
2024-02-02T05:18:51.722Z,25.73
2024-02-02T05:21:19.538Z,27.63
2024-02-02T05:23:49.574Z,29.92
2024-02-02T05:26:17.525Z,29.48
2024-02-02T05:28:44.398Z,28.10
2024-02-02T05:31:11.254Z,29.80
2024-02-02T05:33:37.947Z,29.37
2024-02-02T05:36:04.652Z,26.47
2024-02-02T05:38:31.271Z,29.15
2024-02-02T05:40:57.757Z,30.75
2024-02-02T05:43:24.798Z,27.33
2024-02-02T05:45:51.328Z,29.58
2024-02-02T05:48:17.999Z,31.05
2024-02-02T05:50:45.767Z,32.78
2024-02-02T05:53:13.864Z,23.98
2024-02-02T05:55:40.864Z,13.38
2024-02-02T05:58:07.400Z,28.30
2024-02-02T06:00:34.245Z,24.42
2024-02-02T06:03:01.044Z,29.83
2024-02-02T06:05:27.614Z,34.55
2024-02-02T06:07:54.135Z,29.02
2024-02-02T06:10:20.680Z,28.77
2024-02-02T06:12:47.180Z,29.52
2024-02-02T06:15:13.777Z,31.98
2024-02-02T06:17:40.301Z,32.45
2024-02-02T06:20:07.851Z,33.42
2024-02-02T06:22:34.477Z,29.42
2024-02-02T06:25:01.124Z,26.43
2024-02-02T06:27:28.624Z,35.40
2024-02-02T06:29:55.281Z,34.67
2024-02-02T06:32:24.653Z,33.95
2024-02-02T06:34:56.644Z,32.28
2024-02-02T06:37:24.617Z,35.95
2024-02-02T06:39:53.255Z,32.58
2024-02-02T06:42:20.448Z,34.50
2024-02-02T06:44:47.113Z,39.60
2024-02-02T06:47:13.577Z,42.40
2024-02-02T06:49:40.115Z,41.17
2024-02-02T06:52:06.876Z,39.80
2024-02-02T06:54:33.407Z,44.65
2024-02-02T06:56:59.919Z,40.53
2024-02-02T06:59:26.426Z,41.83
2024-02-02T07:01:53.784Z,39.50
2024-02-02T07:04:20.448Z,37.23
2024-02-02T07:06:48.388Z,38.70
2024-02-02T07:09:24.180Z,38.28
2024-02-02T07:12:04.858Z,36.60
2024-02-02T07:14:45.231Z,38.22
2024-02-02T07:17:30.369Z,34.35
2024-02-02T07:19:58.452Z,36.25
2024-02-02T07:22:40.908Z,38.15
2024-02-02T07:25:11.538Z,37.03
2024-02-02T07:27:55.565Z,37.72
2024-02-02T07:30:56.504Z,36.85
2024-02-02T07:33:24.796Z,33.90
2024-02-02T07:35:52.216Z,35.83
2024-02-02T07:38:50.735Z,34.20
2024-02-02T07:41:18.288Z,33.85
2024-02-02T07:43:45.946Z,30.90
2024-02-02T07:46:15.670Z,37.70
2024-02-02T07:48:43.521Z,36.83
2024-02-02T07:51:11.106Z,33.88
2024-02-02T07:53:37.754Z,30.75
2024-02-02T07:56:04.478Z,30.55
2024-02-02T07:58:31.022Z,33.33
2024-02-02T08:00:58.967Z,27.80
2024-02-02T08:03:25.868Z,31.40
2024-02-02T08:05:52.638Z,24.95
2024-02-02T08:08:19.427Z,29.55
2024-02-02T08:10:47.310Z,28.30
2024-02-02T08:13:15.229Z,29.52
2024-02-02T08:15:41.958Z,29.92
2024-02-02T08:18:10.087Z,29.95
2024-02-02T08:20:36.752Z,27.13
2024-02-02T08:23:03.869Z,27.42
2024-02-02T08:25:30.708Z,29.33
2024-02-02T08:27:57.792Z,26.77
2024-02-02T08:30:24.991Z,28.13
2024-02-02T08:32:52.849Z,29.27
2024-02-02T08:35:23.679Z,26.13
2024-02-02T08:38:01.159Z,27.77
2024-02-02T08:40:35.397Z,28.92
2024-02-02T08:43:02.986Z,24.33
2024-02-02T08:46:03.579Z,26.40
2024-02-02T08:48:46.466Z,27.77
2024-02-02T08:51:22.839Z,26.05
2024-02-02T08:54:06.486Z,27.38
2024-02-02T08:56:33.137Z,26.67
2024-02-02T08:58:59.640Z,24.00
2024-02-02T09:01:43.298Z,29.20
2024-02-02T09:05:00.071Z,28.65
2024-02-02T09:07:26.727Z,27.67
2024-02-02T09:09:53.410Z,25.80
2024-02-02T09:12:20.160Z,28.38
2024-02-02T09:14:46.758Z,25.13
2024-02-02T09:17:14.041Z,22.33
2024-02-02T09:19:47.078Z,28.53
2024-02-02T09:22:17.410Z,29.52
2024-02-02T09:24:46.850Z,29.02
2024-02-02T09:27:15.367Z,27.17
2024-02-02T09:29:48.326Z,29.45
2024-02-02T09:32:16.716Z,25.23
2024-02-02T09:34:46.644Z,28.45
2024-02-02T09:37:26.684Z,28.08
2024-02-02T09:39:57.484Z,26.73
2024-02-02T09:42:51.942Z,30.48
2024-02-02T09:45:34.278Z,25.73
2024-02-02T09:48:14.117Z,26.27
2024-02-02T09:51:22.688Z,31.25
2024-02-02T09:54:01.750Z,28.20
2024-02-02T09:56:34.088Z,29.77
2024-02-02T09:59:05.357Z,24.50
2024-02-02T10:01:46.979Z,23.52
2024-02-02T10:04:22.045Z,20.20
2024-02-02T10:07:07.445Z,24.60
2024-02-02T10:09:56.702Z,23.45
2024-02-02T10:12:42.146Z,22.95
2024-02-02T10:15:43.787Z,26.30
2024-02-02T10:18:25.455Z,24.15
2024-02-02T10:21:21.381Z,23.70
2024-02-02T10:24:18.287Z,23.17
2024-02-02T10:26:58.162Z,24.75
2024-02-02T10:29:55.803Z,21.77
2024-02-02T10:32:45.380Z,23.58
2024-02-02T10:35:50.393Z,19.17
2024-02-02T10:38:50.696Z,19.02
2024-02-02T10:41:22.937Z,22.13
2024-02-02T10:44:27.136Z,22.85
2024-02-02T10:47:15.269Z,20.02
2024-02-02T10:50:16.271Z,20.33
2024-02-02T10:53:10.320Z,22.77
2024-02-02T10:55:55.287Z,23.30
2024-02-02T10:58:31.043Z,22.50
2024-02-02T11:01:12.869Z,17.38
2024-02-02T11:03:59.289Z,16.80
2024-02-02T11:06:54.177Z,17.15
2024-02-02T11:09:26.733Z,18.42
2024-02-02T11:12:08.413Z,14.88
2024-02-02T11:14:54.940Z,14.23
2024-02-02T11:17:34.836Z,14.98
2024-02-02T11:20:22.895Z,10.47
2024-02-02T11:23:04.723Z,14.15
2024-02-02T11:25:42.291Z,14.57
2024-02-02T11:28:20.700Z,14.00
2024-02-02T11:31:26.096Z,12.05
2024-02-02T11:34:01.307Z,15.20
2024-02-02T11:36:55.534Z,12.18
2024-02-02T11:39:40.725Z,13.98
2024-02-02T11:42:11.927Z,12.10
2024-02-02T11:44:41.734Z,14.90
2024-02-02T11:47:10.558Z,12.52
2024-02-02T11:49:45.288Z,13.02
2024-02-02T11:52:40.627Z,13.93
2024-02-02T11:55:16.284Z,14.45
2024-02-02T11:57:50.202Z,12.57
2024-02-02T12:00:25.087Z,11.93
2024-02-02T12:03:28.047Z,12.98
2024-02-02T12:06:06.852Z,12.50
2024-02-02T12:08:44.179Z,14.73
2024-02-02T12:11:15.777Z,15.52
2024-02-02T12:13:45.922Z,12.45
2024-02-02T12:16:12.617Z,13.93
2024-02-02T12:18:39.549Z,12.27
2024-02-02T12:21:13.629Z,13.02
2024-02-02T12:23:40.259Z,11.40
2024-02-02T12:26:08.123Z,11.23
2024-02-02T12:28:34.627Z,12.77
2024-02-02T12:31:02.108Z,11.77
2024-02-02T12:33:28.709Z,10.00
2024-02-02T12:35:58.405Z,10.73
2024-02-02T12:38:27.638Z,10.35
2024-02-02T12:40:54.180Z,9.38
2024-02-02T12:43:25.507Z,12.65
2024-02-02T12:45:54.467Z,10.30
2024-02-02T12:48:21.507Z,10.13
2024-02-02T12:50:50.452Z,9.85
2024-02-02T12:53:18.047Z,10.02
2024-02-02T12:55:46.481Z,9.20
2024-02-02T12:58:13.043Z,10.63
2024-02-02T13:00:40.181Z,10.07
2024-02-02T13:03:08.674Z,9.53
2024-02-02T13:05:35.274Z,10.77
2024-02-02T13:08:03.899Z,9.93
2024-02-02T13:10:45.141Z,9.98
2024-02-02T13:13:13.082Z,9.50
2024-02-02T13:15:40.081Z,9.80
2024-02-02T13:18:13.551Z,10.65
2024-02-02T13:20:43.047Z,8.82
2024-02-02T13:23:14.213Z,8.93
2024-02-02T13:25:41.774Z,10.00
2024-02-02T13:28:17.357Z,8.75
2024-02-02T13:31:05.812Z,10.50
2024-02-02T13:33:34.143Z,8.55
2024-02-02T13:36:02.880Z,7.53
2024-02-02T13:38:32.465Z,8.20
2024-02-02T13:41:00.777Z,8.98
2024-02-02T13:43:28.909Z,9.38
2024-02-02T13:46:06.269Z,10.37
2024-02-02T13:48:44.408Z,9.15
2024-02-02T13:51:11.539Z,8.70
2024-02-02T13:53:38.211Z,10.40
2024-02-02T13:56:06.323Z,7.60
2024-02-02T13:58:39.954Z,8.77
2024-02-02T14:01:21.633Z,8.10
2024-02-02T14:03:52.496Z,9.35
2024-02-02T14:06:19.900Z,8.02
2024-02-02T14:08:49.664Z,9.20
2024-02-02T14:11:23.845Z,6.88
2024-02-02T14:13:51.441Z,7.05
2024-02-02T14:16:25.886Z,8.27
2024-02-02T14:18:59.303Z,8.43
2024-02-02T14:21:30.512Z,7.97
2024-02-02T14:24:13.563Z,7.55
2024-02-02T14:26:57.614Z,8.32
2024-02-02T14:29:28.150Z,7.32
2024-02-02T14:31:59.149Z,8.20
2024-02-02T14:34:28.343Z,9.30
2024-02-02T14:36:55.824Z,7.25
2024-02-02T14:39:27.055Z,9.05
2024-02-02T14:41:55.124Z,8.63
2024-02-02T14:44:22.091Z,7.82
2024-02-02T14:46:48.885Z,7.70
2024-02-02T14:49:16.082Z,8.73
2024-02-02T14:51:42.812Z,7.47
2024-02-02T14:54:09.586Z,7.72
2024-02-02T14:56:39.283Z,11.95
2024-02-02T14:59:09.563Z,7.18
2024-02-02T15:01:37.456Z,6.15
2024-02-02T15:04:05.516Z,7.05
2024-02-02T15:06:33.686Z,9.00
2024-02-02T15:09:00.990Z,9.07
2024-02-02T15:11:28.431Z,12.73
2024-02-02T15:13:55.904Z,8.80
2024-02-02T15:16:22.428Z,9.20
2024-02-02T15:18:49.122Z,8.70
2024-02-02T15:21:16.240Z,9.38
2024-02-02T15:23:43.252Z,5.93
2024-02-02T15:26:10.341Z,6.72
2024-02-02T15:28:39.701Z,6.95
2024-02-02T15:31:09.712Z,8.25
2024-02-02T15:33:36.414Z,28.42
2024-02-02T15:36:03.501Z,15.63
2024-02-02T15:38:30.010Z,25.55
2024-02-02T15:40:59.024Z,8.60
2024-02-02T15:43:25.770Z,7.88
2024-02-02T15:45:52.981Z,8.87
2024-02-02T15:48:20.142Z,7.80
2024-02-02T15:50:47.384Z,9.45
2024-02-02T15:53:13.925Z,10.77
2024-02-02T15:55:40.546Z,8.05
2024-02-02T15:58:07.165Z,10.27
2024-02-02T16:00:33.755Z,9.95
2024-02-02T16:03:00.267Z,8.60
2024-02-02T16:05:26.921Z,10.23
2024-02-02T16:07:53.436Z,8.30
2024-02-02T16:10:20.062Z,8.63
2024-02-02T16:12:46.711Z,9.13
2024-02-02T16:15:13.876Z,9.18
2024-02-02T16:17:41.179Z,10.18
2024-02-02T16:20:11.870Z,9.75
2024-02-02T16:22:42.183Z,10.80
2024-02-02T16:25:10.140Z,9.63
2024-02-02T16:27:36.905Z,9.15
2024-02-02T16:30:03.612Z,11.13
2024-02-02T16:32:30.140Z,11.23
2024-02-02T16:34:57.048Z,9.73
2024-02-02T16:37:24.248Z,11.95
2024-02-02T16:39:51.037Z,10.45
2024-02-02T16:42:18.320Z,10.00
2024-02-02T16:44:44.907Z,9.80
2024-02-02T16:47:11.635Z,9.73
2024-02-02T16:49:39.863Z,11.05
2024-02-02T16:52:06.936Z,9.47
2024-02-02T16:54:33.502Z,10.40
2024-02-02T16:57:00.124Z,10.73
2024-02-02T16:59:27.221Z,10.70
2024-02-02T17:01:53.785Z,12.18
2024-02-02T17:04:20.406Z,13.00
2024-02-02T17:06:47.050Z,10.52
2024-02-02T17:09:13.717Z,12.27
2024-02-02T17:11:40.341Z,11.98
2024-02-02T17:14:06.925Z,11.90
2024-02-02T17:16:33.592Z,13.73
2024-02-02T17:19:00.251Z,11.98
2024-02-02T17:21:27.212Z,12.77
2024-02-02T17:23:54.170Z,12.05
2024-02-02T17:26:20.777Z,13.25
2024-02-02T17:28:47.658Z,15.13
2024-02-02T17:31:15.782Z,10.80
2024-02-02T17:33:43.098Z,10.93
2024-02-02T17:36:16.531Z,11.27
2024-02-02T17:38:43.951Z,11.32
2024-02-02T17:41:15.663Z,10.67
2024-02-02T17:43:44.119Z,10.88
2024-02-02T17:46:17.583Z,11.38
2024-02-02T17:48:44.201Z,10.60
2024-02-02T17:51:11.371Z,10.48
2024-02-02T17:53:41.085Z,10.63
2024-02-02T17:56:09.135Z,8.93
2024-02-02T17:58:36.477Z,9.80
2024-02-02T18:01:03.308Z,8.98
2024-02-02T18:03:30.678Z,8.55
2024-02-02T18:05:57.273Z,11.07
2024-02-02T18:08:23.866Z,10.40
2024-02-02T18:10:50.917Z,10.65
2024-02-02T18:13:17.569Z,12.97
2024-02-02T18:15:44.477Z,10.80
2024-02-02T18:18:12.146Z,10.30
2024-02-02T18:20:38.843Z,10.35
2024-02-02T18:23:07.040Z,9.02
2024-02-02T18:25:33.669Z,8.50
2024-02-02T18:28:00.407Z,11.93
2024-02-02T18:30:28.838Z,9.65
2024-02-02T18:32:55.709Z,9.50
2024-02-02T18:35:22.423Z,9.32
2024-02-02T18:37:50.150Z,8.63
2024-02-02T18:40:17.064Z,8.73
2024-02-02T18:42:43.636Z,8.88
2024-02-02T18:45:10.582Z,8.33
2024-02-02T18:47:39.035Z,9.50
2024-02-02T18:50:07.520Z,8.73
2024-02-02T18:52:34.076Z,9.75
2024-02-02T18:55:00.615Z,9.10
2024-02-02T18:57:27.138Z,8.70
2024-02-02T18:59:53.669Z,9.68
2024-02-02T19:02:20.211Z,9.82
2024-02-02T19:04:46.973Z,10.10
2024-02-02T19:07:14.181Z,9.00
2024-02-02T19:09:40.958Z,9.15
2024-02-02T19:12:07.702Z,9.82
2024-02-02T19:14:34.333Z,8.48
2024-02-02T19:17:00.820Z,8.82
2024-02-02T19:19:27.389Z,7.90
2024-02-02T19:21:53.985Z,9.48
2024-02-02T19:24:20.532Z,9.23
2024-02-02T19:26:47.349Z,8.10
2024-02-02T19:29:13.842Z,8.70
2024-02-02T19:31:40.649Z,9.80
2024-02-02T19:34:07.869Z,10.80
2024-02-02T19:36:34.790Z,9.60
2024-02-02T19:39:02.079Z,9.97
2024-02-02T19:41:33.317Z,10.00
2024-02-02T19:44:00.359Z,9.65
2024-02-02T19:46:26.900Z,9.63
2024-02-02T19:48:54.610Z,8.85
2024-02-02T19:51:23.072Z,12.15
2024-02-02T19:53:49.936Z,10.25
2024-02-02T19:56:16.756Z,10.18
2024-02-02T19:58:43.667Z,10.80
2024-02-02T20:01:14.534Z,11.10
2024-02-02T20:03:42.089Z,11.75
2024-02-02T20:06:10.046Z,12.63
2024-02-02T20:08:39.158Z,12.95
2024-02-02T20:11:05.782Z,11.40
2024-02-02T20:13:32.484Z,13.32
2024-02-02T20:15:58.978Z,13.48
2024-02-02T20:18:25.661Z,13.52
2024-02-02T20:20:54.776Z,11.85
2024-02-02T20:23:21.737Z,13.23
2024-02-02T20:25:48.503Z,14.43
2024-02-02T20:28:15.145Z,13.90
2024-02-02T20:30:41.789Z,14.75
2024-02-02T20:33:08.862Z,14.82
2024-02-02T20:35:35.502Z,14.85
2024-02-02T20:38:02.101Z,16.63
2024-02-02T20:40:28.582Z,15.47
2024-02-02T20:42:55.184Z,16.15
2024-02-02T20:45:22.399Z,14.50
2024-02-02T20:47:48.915Z,15.00
2024-02-02T20:50:15.569Z,15.93
2024-02-02T20:52:42.152Z,17.17
2024-02-02T20:55:09.167Z,16.50
2024-02-02T20:57:35.790Z,16.55
2024-02-02T21:00:02.296Z,18.58
2024-02-02T21:02:28.823Z,18.13
2024-02-02T21:04:55.360Z,20.13
2024-02-02T21:07:22.272Z,17.75
2024-02-02T21:09:49.047Z,19.92
2024-02-02T21:12:15.733Z,21.13
2024-02-02T21:14:42.379Z,22.20
2024-02-02T21:17:09.176Z,20.52
2024-02-02T21:19:35.874Z,21.00
2024-02-02T21:22:06.662Z,19.88
2024-02-02T21:24:33.757Z,22.27
2024-02-02T21:27:00.405Z,21.73
2024-02-02T21:29:26.996Z,21.52
2024-02-02T21:31:53.534Z,22.58
2024-02-02T21:34:20.063Z,20.63
2024-02-02T21:36:46.765Z,21.90
2024-02-02T21:39:13.557Z,22.92
2024-02-02T21:41:40.160Z,21.35
2024-02-02T21:44:10.092Z,21.65
2024-02-02T21:46:37.005Z,22.87
2024-02-02T21:49:04.036Z,25.48
2024-02-02T21:51:30.694Z,24.73
2024-02-02T21:53:57.293Z,24.42
2024-02-02T21:56:23.851Z,23.10
2024-02-02T21:58:50.363Z,24.35
2024-02-02T22:01:16.986Z,24.05
2024-02-02T22:03:43.619Z,24.20
2024-02-02T22:06:10.836Z,28.40
2024-02-02T22:08:37.471Z,24.45
2024-02-02T22:11:04.132Z,23.67
2024-02-02T22:13:30.698Z,24.73
2024-02-02T22:15:57.306Z,21.83
2024-02-02T22:18:23.904Z,24.38
2024-02-02T22:20:50.470Z,21.85
2024-02-02T22:23:16.992Z,24.73
2024-02-02T22:25:43.494Z,24.52
2024-02-02T22:28:10.096Z,28.48
2024-02-02T22:30:36.630Z,25.35
2024-02-02T22:33:03.827Z,27.90
2024-02-02T22:35:30.513Z,24.63
2024-02-02T22:37:57.017Z,26.87
2024-02-02T22:40:23.610Z,27.70
2024-02-02T22:42:50.160Z,27.27
2024-02-02T22:45:17.163Z,29.20
2024-02-02T22:47:43.827Z,29.77
2024-02-02T22:50:11.669Z,30.65
2024-02-02T22:52:38.379Z,29.90
2024-02-02T22:55:05.190Z,31.50
2024-02-02T22:57:31.789Z,30.10
2024-02-02T23:00:02.523Z,31.55
2024-02-02T23:02:32.992Z,31.92
2024-02-02T23:04:59.518Z,32.20
2024-02-02T23:07:26.364Z,31.33
2024-02-02T23:09:52.950Z,32.43
2024-02-02T23:12:19.957Z,30.30
2024-02-02T23:14:46.458Z,32.23
2024-02-02T23:17:13.085Z,35.17
2024-02-02T23:19:43.889Z,31.23
2024-02-02T23:22:11.548Z,31.15
2024-02-02T23:24:38.112Z,29.25
2024-02-02T23:27:04.889Z,33.57
2024-02-02T23:29:31.460Z,32.88
2024-02-02T23:31:57.955Z,32.20
2024-02-02T23:34:24.614Z,35.28
2024-02-02T23:36:52.233Z,33.97
2024-02-02T23:39:19.070Z,33.75
2024-02-02T23:41:45.590Z,28.45
2024-02-02T23:44:12.157Z,29.05
2024-02-02T23:46:38.675Z,25.55
2024-02-02T23:49:05.766Z,25.10
2024-02-02T23:51:32.446Z,24.65
2024-02-02T23:53:58.968Z,24.27
2024-02-02T23:56:25.438Z,21.60
2024-02-02T23:58:51.936Z,21.58
